createdAt,value
2023-03-02T00:00:43.275Z,73.77
2023-03-02T00:04:57.198Z,74.24
2023-03-02T00:09:06.314Z,74.26
2023-03-02T00:13:14.762Z,74.54
2023-03-02T00:17:28.953Z,74.72
2023-03-02T00:21:37.882Z,74.44
2023-03-02T00:25:45.227Z,74.83
2023-03-02T00:29:52.812Z,74.83
2023-03-02T00:34:00.587Z,74.96
2023-03-02T00:38:09.084Z,74.85
2023-03-02T00:42:17.461Z,74.86
2023-03-02T00:46:26.279Z,75.39
2023-03-02T00:50:34.177Z,75.64
2023-03-02T00:54:41.949Z,76.22
2023-03-02T00:58:49.749Z,76.38
2023-03-02T01:02:59.457Z,76.55
2023-03-02T01:07:11.173Z,76.54
2023-03-02T01:11:21.222Z,76.55
2023-03-02T01:15:33.317Z,75.86
2023-03-02T01:19:41.737Z,75.60
2023-03-02T01:23:51.844Z,75.29
2023-03-02T01:27:59.973Z,75.44
2023-03-02T01:32:08.074Z,75.26
2023-03-02T01:36:16.595Z,75.70
2023-03-02T01:40:23.746Z,76.05
2023-03-02T01:44:43.586Z,75.72
2023-03-02T01:48:55.982Z,75.96
2023-03-02T01:53:04.789Z,75.87
2023-03-02T01:57:14.774Z,75.84
2023-03-02T02:01:22.157Z,75.65
2023-03-02T02:05:29.702Z,75.48
2023-03-02T02:09:40.447Z,75.52
2023-03-02T02:13:48.020Z,75.52
2023-03-02T02:17:57.913Z,75.82
2023-03-02T02:22:06.666Z,75.81
2023-03-02T02:26:23.750Z,75.81
2023-03-02T02:30:32.183Z,75.93
2023-03-02T02:34:44.031Z,76.39
2023-03-02T02:38:55.790Z,76.34
2023-03-02T02:43:03.251Z,76.32
2023-03-02T02:47:16.201Z,76.36
2023-03-02T02:51:26.863Z,75.94
2023-03-02T02:55:35.927Z,75.93
2023-03-02T02:59:47.120Z,75.88
2023-03-02T03:03:57.490Z,75.80
2023-03-02T03:08:30.456Z,75.92
2023-03-02T03:12:38.345Z,76.30
2023-03-02T03:16:47.482Z,76.43
2023-03-02T03:20:57.217Z,76.29
2023-03-02T03:25:05.520Z,76.63
2023-03-02T03:29:13.483Z,76.84
2023-03-02T03:33:21.097Z,77.11
2023-03-02T03:37:29.434Z,77.31
2023-03-02T03:41:37.227Z,77.23
2023-03-02T03:45:44.482Z,76.92
2023-03-02T03:49:53.052Z,77.27
2023-03-02T03:54:01.238Z,76.82
2023-03-02T03:58:08.982Z,76.67
2023-03-02T04:02:16.968Z,76.39
2023-03-02T04:06:24.826Z,76.34
2023-03-02T04:10:32.457Z,76.30
2023-03-02T04:14:40.563Z,76.46
2023-03-02T04:18:48.323Z,76.63
2023-03-02T04:22:57.227Z,76.95
2023-03-02T04:27:05.439Z,77.01
2023-03-02T04:31:13.127Z,76.90
2023-03-02T04:35:21.409Z,77.00
2023-03-02T04:39:29.508Z,76.67
2023-03-02T04:43:37.383Z,76.98
2023-03-02T04:47:46.326Z,77.45
2023-03-02T04:51:54.544Z,77.37
2023-03-02T04:56:02.340Z,77.96
2023-03-02T05:00:13.426Z,78.18
2023-03-02T05:04:21.727Z,78.58
2023-03-02T05:08:29.447Z,78.16
2023-03-02T05:12:54.556Z,78.01
2023-03-02T05:17:04.943Z,77.73
2023-03-02T05:21:12.865Z,77.86
2023-03-02T05:25:22.936Z,77.66
2023-03-02T05:29:30.593Z,77.20
2023-03-02T05:33:37.914Z,77.44
2023-03-02T05:37:45.722Z,76.91
2023-03-02T05:41:53.891Z,76.92
2023-03-02T05:46:01.668Z,76.92
2023-03-02T05:50:15.492Z,76.87
2023-03-02T05:54:24.124Z,77.27
2023-03-02T05:58:32.827Z,77.55
2023-03-02T06:02:41.124Z,77.64
2023-03-02T06:06:48.808Z,77.59
2023-03-02T06:11:00.016Z,77.93
2023-03-02T06:15:09.519Z,77.91
2023-03-02T06:19:17.714Z,77.97
2023-03-02T06:23:25.224Z,77.95
2023-03-02T06:27:32.493Z,78.02
2023-03-02T06:31:40.411Z,78.18
2023-03-02T06:35:48.262Z,78.27
2023-03-02T06:39:55.651Z,78.54
2023-03-02T06:44:03.074Z,78.76
2023-03-02T06:48:10.904Z,78.84
2023-03-02T06:52:19.434Z,79.16
2023-03-02T06:56:27.181Z,79.21
2023-03-02T07:00:35.104Z,79.36
2023-03-02T07:04:43.293Z,79.63
2023-03-02T07:08:53.478Z,79.60
2023-03-02T07:13:01.329Z,79.70
2023-03-02T07:17:09.040Z,79.90
2023-03-02T07:21:16.805Z,80.68
2023-03-02T07:25:25.926Z,81.31
2023-03-02T07:29:33.585Z,81.52
2023-03-02T07:33:42.696Z,81.45
2023-03-02T07:37:50.378Z,81.62
2023-03-02T07:42:01.220Z,81.68
2023-03-02T07:46:08.672Z,81.69
2023-03-02T07:50:17.897Z,81.34
2023-03-02T07:54:27.620Z,81.01
2023-03-02T07:58:35.495Z,80.53
2023-03-02T08:02:43.981Z,80.31
2023-03-02T08:06:53.249Z,80.27
2023-03-02T08:11:07.890Z,79.97
2023-03-02T08:15:15.823Z,79.48
2023-03-02T08:19:23.707Z,79.23
2023-03-02T08:23:31.720Z,78.66
2023-03-02T08:27:40.347Z,77.97
2023-03-02T08:31:48.469Z,77.77
2023-03-02T08:36:00.356Z,77.79
2023-03-02T08:40:10.268Z,77.34
2023-03-02T08:44:18.621Z,77.21
2023-03-02T08:48:27.858Z,77.15
2023-03-02T08:52:37.298Z,76.52
2023-03-02T08:56:45.096Z,75.22
2023-03-02T09:00:53.641Z,73.63
2023-03-02T09:05:01.495Z,72.35
2023-03-02T09:09:09.870Z,72.23
2023-03-02T09:13:17.740Z,71.12
2023-03-02T09:17:25.829Z,70.83
2023-03-02T09:21:33.664Z,70.19
2023-03-02T09:25:41.884Z,69.62
2023-03-02T09:29:49.685Z,69.67
2023-03-02T09:33:58.362Z,68.98
2023-03-02T09:38:06.098Z,68.79
2023-03-02T09:42:25.410Z,69.03
2023-03-02T09:46:37.779Z,68.81
2023-03-02T09:50:53.787Z,69.03
2023-03-02T09:55:03.664Z,67.69
2023-03-02T09:59:20.264Z,67.18
2023-03-02T10:03:34.321Z,66.77
2023-03-02T10:07:42.163Z,65.89
2023-03-02T10:11:59.089Z,65.73
2023-03-02T10:16:17.708Z,65.17
2023-03-02T10:20:34.615Z,64.27
2023-03-02T10:24:46.621Z,64.80
2023-03-02T10:29:04.980Z,64.07
2023-03-02T10:33:18.988Z,64.53
2023-03-02T10:37:30.699Z,64.30
2023-03-02T10:41:42.418Z,63.29
2023-03-02T10:46:02.667Z,63.07
2023-03-02T10:50:25.077Z,62.84
2023-03-02T10:54:34.691Z,61.58
2023-03-02T10:58:43.678Z,62.44
2023-03-02T11:02:56.434Z,62.12
2023-03-02T11:07:13.225Z,61.82
2023-03-02T11:11:26.373Z,60.21
2023-03-02T11:15:41.506Z,59.78
2023-03-02T11:19:49.901Z,60.30
2023-03-02T11:24:05.055Z,59.50
2023-03-02T11:28:18.380Z,58.40
2023-03-02T11:32:32.282Z,58.67
2023-03-02T11:36:47.544Z,58.12
2023-03-02T11:40:58.947Z,57.60
2023-03-02T11:45:18.903Z,57.75
2023-03-02T11:49:29.854Z,58.21
2023-03-02T11:53:43.915Z,57.68
2023-03-02T11:57:54.202Z,57.68
2023-03-02T12:02:03.418Z,56.12
2023-03-02T12:06:29.892Z,56.90
2023-03-02T12:10:40.577Z,57.18
2023-03-02T12:14:49.210Z,57.73
2023-03-02T12:18:57.326Z,57.35
2023-03-02T12:23:23.224Z,57.20
2023-03-02T12:27:37.561Z,55.78
2023-03-02T12:31:48.662Z,56.13
2023-03-02T12:36:08.630Z,56.61
2023-03-02T12:40:29.073Z,57.27
2023-03-02T12:44:47.479Z,55.73
2023-03-02T12:49:03.310Z,55.72
2023-03-02T12:53:21.280Z,56.09
2023-03-02T12:57:29.197Z,55.90
2023-03-02T13:01:37.935Z,56.37
2023-03-02T13:05:46.575Z,55.95
2023-03-02T13:09:57.341Z,56.54
2023-03-02T13:14:15.220Z,55.52
2023-03-02T13:18:23.163Z,55.57
2023-03-02T13:22:31.567Z,55.07
2023-03-02T13:26:40.919Z,53.64
2023-03-02T13:30:50.547Z,54.05
2023-03-02T13:34:59.812Z,54.69
2023-03-02T13:39:17.001Z,54.51
2023-03-02T13:43:38.450Z,54.72
2023-03-02T13:47:46.049Z,54.74
2023-03-02T13:52:03.217Z,54.73
2023-03-02T13:56:14.476Z,54.21
2023-03-02T14:00:24.658Z,54.11
2023-03-02T14:04:33.092Z,54.56
2023-03-02T14:08:41.129Z,54.06
2023-03-02T14:12:53.725Z,53.92
2023-03-02T14:17:01.644Z,53.81
2023-03-02T14:21:12.885Z,53.37
2023-03-02T14:25:21.295Z,53.36
2023-03-02T14:29:32.329Z,53.13
2023-03-02T14:33:40.488Z,53.21
2023-03-02T14:37:51.390Z,52.60
2023-03-02T14:41:59.359Z,51.65
2023-03-02T14:46:07.108Z,52.21
2023-03-02T14:50:17.238Z,52.69
2023-03-02T14:54:25.224Z,52.52
2023-03-02T14:58:36.050Z,52.59
2023-03-02T15:02:44.341Z,52.31
2023-03-02T15:06:52.774Z,51.97
2023-03-02T15:11:01.007Z,51.80
2023-03-02T15:15:10.816Z,52.00
2023-03-02T15:19:20.799Z,52.15
2023-03-02T15:23:28.924Z,52.52
2023-03-02T15:27:36.532Z,52.94
2023-03-02T15:31:44.331Z,53.19
2023-03-02T15:35:56.001Z,53.17
2023-03-02T15:40:04.003Z,53.22
2023-03-02T15:44:22.518Z,53.60
2023-03-02T15:48:31.611Z,54.01
2023-03-02T15:52:39.847Z,54.24
2023-03-02T15:56:52.026Z,54.50
2023-03-02T16:01:00.571Z,54.72
2023-03-02T16:05:10.745Z,54.86
2023-03-02T16:09:20.409Z,54.77
2023-03-02T16:13:30.397Z,55.49
2023-03-02T16:17:41.832Z,56.12
2023-03-02T16:21:49.428Z,56.30
2023-03-02T16:25:57.007Z,57.06
2023-03-02T16:30:05.338Z,57.73
2023-03-02T16:34:13.729Z,57.93
2023-03-02T16:38:21.928Z,58.16
2023-03-02T16:42:30.505Z,58.63
2023-03-02T16:46:43.853Z,58.86
2023-03-02T16:50:58.501Z,59.43
2023-03-02T16:55:07.118Z,61.29
2023-03-02T16:59:14.871Z,62.68
2023-03-02T17:03:24.313Z,64.41
2023-03-02T17:07:32.276Z,65.16
2023-03-02T17:11:39.784Z,66.32
2023-03-02T17:15:48.050Z,67.08
2023-03-02T17:19:56.634Z,67.71
2023-03-02T17:24:04.919Z,67.56
2023-03-02T17:28:15.036Z,68.14
2023-03-02T17:32:23.028Z,68.74
2023-03-02T17:36:35.042Z,69.46
2023-03-02T17:40:44.410Z,69.68
2023-03-02T17:44:52.002Z,69.71
2023-03-02T17:49:01.614Z,70.06
2023-03-02T17:53:09.661Z,70.75
2023-03-02T17:57:23.212Z,70.97
2023-03-02T18:01:32.450Z,71.54
2023-03-02T18:05:40.388Z,71.58
2023-03-02T18:09:48.402Z,71.75
2023-03-02T18:13:56.208Z,71.50
2023-03-02T18:18:04.560Z,72.82
2023-03-02T18:22:13.695Z,73.37
2023-03-02T18:26:21.931Z,73.64
2023-03-02T18:30:29.784Z,73.65
2023-03-02T18:34:37.223Z,73.68
2023-03-02T18:38:45.924Z,73.71
2023-03-02T18:42:54.220Z,74.20
2023-03-02T18:47:02.216Z,74.52
2023-03-02T18:51:10.290Z,74.49
2023-03-02T18:55:17.788Z,74.66
2023-03-02T18:59:25.275Z,74.88
2023-03-02T19:03:35.421Z,74.90
2023-03-02T19:07:43.144Z,75.35
2023-03-02T19:11:52.124Z,75.76
2023-03-02T19:16:01.566Z,75.95
2023-03-02T19:20:12.083Z,75.89
2023-03-02T19:24:21.090Z,75.80
2023-03-02T19:28:30.760Z,75.87
2023-03-02T19:32:38.523Z,76.01
2023-03-02T19:36:46.944Z,76.09
2023-03-02T19:40:54.996Z,76.29
2023-03-02T19:45:05.256Z,76.55
2023-03-02T19:49:13.778Z,76.76
2023-03-02T19:53:22.111Z,77.55
2023-03-02T19:57:32.036Z,78.48
2023-03-02T20:01:40.162Z,78.55
2023-03-02T20:05:48.360Z,79.10
2023-03-02T20:09:56.786Z,79.68
2023-03-02T20:14:05.434Z,80.54
2023-03-02T20:18:15.451Z,81.11
2023-03-02T20:22:24.563Z,82.30
2023-03-02T20:26:33.286Z,83.14
2023-03-02T20:30:44.348Z,82.85
2023-03-02T20:34:52.439Z,82.79
2023-03-02T20:39:09.073Z,82.76
2023-03-02T20:43:19.444Z,82.87
2023-03-02T20:47:27.136Z,82.99
2023-03-02T20:51:36.735Z,83.02
2023-03-02T20:55:45.047Z,83.31
2023-03-02T20:59:52.794Z,83.50
2023-03-02T21:04:00.888Z,83.52
2023-03-02T21:08:11.359Z,83.49
2023-03-02T21:12:18.935Z,83.27
2023-03-02T21:16:29.028Z,83.03
2023-03-02T21:20:38.414Z,82.94
2023-03-02T21:24:46.480Z,83.13
2023-03-02T21:28:55.343Z,83.26
2023-03-02T21:33:03.584Z,83.30
2023-03-02T21:37:11.313Z,83.11
2023-03-02T21:41:19.300Z,83.05
2023-03-02T21:45:26.631Z,83.13
2023-03-02T21:49:35.955Z,82.91
2023-03-02T21:53:44.009Z,82.84
2023-03-02T21:57:54.860Z,82.53
2023-03-02T22:02:06.114Z,82.42
2023-03-02T22:06:19.015Z,82.34
2023-03-02T22:10:31.479Z,82.50
2023-03-02T22:14:39.577Z,82.51
2023-03-02T22:18:49.132Z,82.83
2023-03-02T22:22:57.640Z,82.99
2023-03-02T22:27:20.436Z,83.00
2023-03-02T22:31:29.852Z,83.24
2023-03-02T22:35:38.269Z,83.48
2023-03-02T22:39:47.450Z,83.44
2023-03-02T22:43:57.913Z,83.46
2023-03-02T22:48:11.821Z,83.64
2023-03-02T22:52:26.240Z,83.61
2023-03-02T22:56:35.754Z,83.54
2023-03-02T23:00:43.574Z,83.75
2023-03-02T23:04:51.473Z,83.76
2023-03-02T23:09:00.623Z,83.89
2023-03-02T23:13:10.451Z,83.59
2023-03-02T23:17:23.335Z,83.63
2023-03-02T23:21:35.468Z,83.62
2023-03-02T23:25:42.869Z,83.56
2023-03-02T23:29:50.871Z,83.61
2023-03-02T23:33:58.471Z,83.56
2023-03-02T23:38:05.889Z,83.61
2023-03-02T23:42:14.103Z,84.15
2023-03-02T23:46:23.357Z,84.52
2023-03-02T23:50:31.237Z,84.46
2023-03-02T23:54:39.233Z,84.81
2023-03-02T23:58:46.776Z,85.16
